Rawlins, WY

12:47 PM MDT on July 12, 2014 (GMT -0600)
Downtown (KWYSINCL1) Elev 6611 ft | 41.78 °N, 107.12 °W | Change Station

Current weather conditions updated 1 second ago

Scattered Clouds
Scattered Clouds
84.6 °F
Feels Like 84 °F
N
7.5
Wind Variable Wind from ENE
Gusts 13.9 mph

Today is forecast to be Cooler than yesterday.

Today
High -- | Low -- °F
--% Chance of Precip.
Yesterday
High -- | Low -- °F
Precip. -- in
5:44 AM 8:43 PM
Full, 100% visible
Pressure 30.09 in
Visibility 10.0 miles
Clouds Scattered Clouds 4400 ft
Heat Index 84 °F
Dew Point 57 °F
Humidity 40%
Rainfall 0.00 in
Snow Depth Not available.
UV 9 out of 12
Pollen 3.00 out of 12
Air Quality Not available.
Flu Activity Sporadic
METAR KRWL 121753Z AUTO 01007KT 340V040 10SM SCT044 25/09 A3038 RMK AO2 SLP189 T02500094 10250 20150 51006

More Conditions Fewer Conditions

Pressure 30.09 in
Visibility 10.0 miles
Clouds Scattered Clouds 4400 ft
Heat Index 84 °F
Dew Point 57 °F
Humidity 40%
Rainfall 0.00 in
Snow Depth Not available.
UV 9 out of 12
Pollen 3.00 out of 12
Air Quality Not available.
Flu Activity Sporadic
METAR KRWL 121753Z AUTO 01007KT 340V040 10SM SCT044 25/09 A3038 RMK AO2 SLP189 T02500094 10250 20150 51006

More Conditions Fewer Conditions

10-Day Weather Forecast

Almanac

Astronomy

Jul. 12, 2014 Rise Set
Actual Time 5:44 AM MDT 8:43 PM MDT
Civil Twilight 5:11 AM MDT 9:17 PM MDT
Nautical Twilight 4:29 AM MDT 9:59 PM MDT
Astronomical Twilight 3:39 AM MDT 10:48 PM MDT
Moon 8:46 PM MDT 6:09 AM MDT
Length of Visible Light 16h 05m
Length of Day
14h 58m
Tomorrow will be 1m 19s shorter.
Full, 100% of the Moon is Illuminated
Today
Full
Jul 18
Last Quarter
Jul 26
New
Aug 3
First Quarter
Aug 10
Full

Today's Extremes

State Highs State Lows

Community

WunderPhotos

Upload Photos

1,732,918 photos uploaded!

WunderBlogs® & News

Nearby

Snow Depth

Station Depth Elevation
Webber Springs 0 in 9250 ft
Old Battle 0 in 9920 ft
Sandstone R.S. 5 in 8150 ft
Battle Mountain 0 in 7440 ft
Casper Mountain 0 in 7850 ft

Earthquake Activity

City Distance Mag. Time & Date
No recent earthquake activity has been reported nearby.
Minimum magnitude displayed is 2.5.

Coastal Water Temperatures

Place Temperature
No Stations Reporting

Nearby Weather Stations

Station Location Temp. Heat Index Dew Point Humidity Wind Precip. Elev Updated Type
Rawlins, WY 79.4 °F 77 °F - - NE  at  0.0 mph 0.00 in / hr 7487 ft 12:47 PM MDT Rapid Fire
Downtown, Sinclair, Wy 84.6 °F 84 °F 57 °F 40% ENE  at  7.5 mph 0.00 in / hr 6611 ft 12:47 PM MDT Rapid Fire
MesoWest HADSL1 , Rawlins, WY 65 °F - - - North  at  - 0.00 in / hr 6860 ft 11:00 AM MDT MADIS
MesoWest BENTN2 , Sinclair, WY 69 °F - - - North  at  - 0.00 in / hr 6549 ft 12:00 PM MDT MADIS

Show More Stations Show Fewer Stations